Time;durP1;ratioP1;P1;durP2;ratioP2;P2;SDS_P1;SDS_P2;PMS_P1;PMS_P2;Temp;Humidity;BMP_temperature;BMP_pressure;BME280_temperature;BME280_humidity;BME280_pressure;Samples;Min_cycle;Max_cycle;Signal;HPM_P1;HPM_P2
2021/04/23 00:01:26;;;;;;;11.00;5.65;;;;;;;;;;5115325;28;20077;-68
2021/04/23 00:03:58;;;;;;;12.45;6.47;;;;;;;;;;5115292;28;20028;-64
2021/04/23 00:06:24;;;;;;;11.30;7.13;;;;;;;;;;5095538;28;20035;-68
2021/04/23 00:08:51;;;;;;;11.52;6.80;;;;;;;;;;5094687;28;20173;-66
2021/04/23 00:11:19;;;;;;;11.35;7.03;;;;;;;;;;5095386;28;20478;-67
2021/04/23 00:13:45;;;;;;;14.77;7.50;;;;;;;;;;5115593;28;20039;-68
2021/04/23 00:16:12;;;;;;;12.80;6.25;;;;;;;;;;5098949;28;20504;-68
2021/04/23 00:18:38;;;;;;;12.52;6.50;;;;;;;;;;5094824;28;20035;-69
2021/04/23 00:21:05;;;;;;;13.40;6.63;;;;;;;;;;5109283;28;20053;-67
2021/04/23 00:23:33;;;;;;;16.45;7.95;;;;;;;;;;5113551;28;20027;-70
2021/04/23 00:25:59;;;;;;;12.32;6.22;;;;;;;;;;5115321;28;20026;-67
2021/04/23 00:28:25;;;;;;;14.93;6.97;;;;;;;;;;5105690;28;20039;-69
2021/04/23 00:30:52;;;;;;;12.35;8.10;;;;;;;;;;5094769;28;20478;-66
2021/04/23 00:33:19;;;;;;;11.75;6.20;;;;;;;;;;5102382;28;20148;-67
2021/04/23 00:35:46;;;;;;;16.35;8.05;;;;;;;;;;5114917;28;20027;-68
2021/04/23 00:38:17;;;;;;;11.57;6.25;;;;;;;;;;5108426;28;20091;-66
2021/04/23 00:40:55;;;;;;;7.43;5.25;;;;;;;;;;5094741;28;20103;-68
2021/04/23 00:43:22;;;;;;;8.77;5.63;;;;;;;;;;5096309;28;20096;-66
2021/04/23 00:45:49;;;;;;;10.65;7.03;;;;;;;;;;5076014;28;20024;-67
2021/04/23 00:48:16;;;;;;;10.27;5.68;;;;;;;;;;5099252;28;20028;-67
2021/04/23 00:50:46;;;;;;;10.60;6.00;;;;;;;;;;5113958;28;20029;-69
2021/04/23 00:53:15;;;;;;;7.03;5.25;;;;;;;;;;5115382;28;20027;-67
2021/04/23 00:55:41;;;;;;;12.18;6.18;;;;;;;;;;5093683;28;20382;-66
2021/04/23 00:58:12;;;;;;;12.60;6.22;;;;;;;;;;5114488;28;20478;-68
2021/04/23 01:00:39;;;;;;;8.43;5.47;;;;;;;;;;5118378;28;20028;-67
2021/04/23 01:03:06;;;;;;;11.90;5.97;;;;;;;;;;5111628;28;20051;-68
2021/04/23 01:05:34;;;;;;;12.30;6.60;;;;;;;;;;5118094;28;20031;-69
2021/04/23 01:08:00;;;;;;;12.45;6.35;;;;;;;;;;5101100;28;20028;-68
2021/04/23 01:10:27;;;;;;;11.75;6.93;;;;;;;;;;5110591;28;20103;-67
2021/04/23 01:12:53;;;;;;;14.55;6.75;;;;;;;;;;5105828;28;20035;-69
2021/04/23 01:15:20;;;;;;;10.63;6.97;;;;;;;;;;5103618;28;20478;-68
2021/04/23 01:17:46;;;;;;;17.70;7.32;;;;;;;;;;5097975;28;20549;-67
2021/04/23 01:20:13;;;;;;;13.48;6.60;;;;;;;;;;5089977;28;20019;-65
2021/04/23 01:22:39;;;;;;;10.63;6.53;;;;;;;;;;5118284;28;20027;-68
2021/04/23 01:25:06;;;;;;;15.30;7.63;;;;;;;;;;5100937;28;20435;-65
2021/04/23 01:27:32;;;;;;;13.98;7.32;;;;;;;;;;5097895;28;20028;-66
2021/04/23 01:29:59;;;;;;;11.70;6.00;;;;;;;;;;5105041;28;20516;-67
2021/04/23 01:32:25;;;;;;;14.55;8.80;;;;;;;;;;5086025;28;20054;-67
2021/04/23 01:34:51;;;;;;;14.45;6.50;;;;;;;;;;5107505;28;20012;-68
2021/04/23 01:37:17;;;;;;;9.90;6.30;;;;;;;;;;5098873;28;20025;-69
2021/04/23 01:39:45;;;;;;;11.75;6.90;;;;;;;;;;5112530;28;20023;-67
2021/04/23 01:42:12;;;;;;;13.15;8.02;;;;;;;;;;5113785;28;20024;-68
2021/04/23 01:44:39;;;;;;;10.48;6.30;;;;;;;;;;5113084;28;20024;-66
2021/04/23 01:47:06;;;;;;;14.65;7.20;;;;;;;;;;5117113;28;20020;-69
2021/04/23 01:49:33;;;;;;;12.60;5.65;;;;;;;;;;5109880;28;20023;-67
2021/04/23 01:52:07;;;;;;;9.85;5.90;;;;;;;;;;5106132;28;20027;-69
2021/04/23 01:54:33;;;;;;;11.35;5.70;;;;;;;;;;5115253;28;20521;-67
2021/04/23 01:56:59;;;;;;;18.92;6.95;;;;;;;;;;5113942;28;20041;-68
2021/04/23 01:59:26;;;;;;;14.10;7.20;;;;;;;;;;5118710;28;20062;-69
2021/04/23 02:01:52;;;;;;;14.07;7.75;;;;;;;;;;5097835;28;20023;-66
2021/04/23 02:04:19;;;;;;;12.80;6.38;;;;;;;;;;5106001;28;20028;-68
2021/04/23 02:06:46;;;;;;;12.60;6.32;;;;;;;;;;5114067;28;20055;-68
2021/04/23 02:09:12;;;;;;;12.07;6.80;;;;;;;;;;5102197;28;20124;-68
2021/04/23 02:11:46;;;;;;;12.93;7.15;;;;;;;;;;5117209;28;20104;-68
2021/04/23 02:14:12;;;;;;;17.20;7.13;;;;;;;;;;5118018;28;20016;-68
2021/04/23 02:16:39;;;;;;;14.13;6.60;;;;;;;;;;5117403;28;20099;-67
2021/04/23 02:19:12;;;;;;;13.93;6.32;;;;;;;;;;5089381;28;20016;-67
2021/04/23 02:21:39;;;;;;;18.92;7.68;;;;;;;;;;5098616;28;20034;-69
2021/04/23 02:24:06;;;;;;;13.65;6.60;;;;;;;;;;5113919;28;20075;-68
2021/04/23 02:26:33;;;;;;;13.07;6.43;;;;;;;;;;5117903;28;20470;-69
2021/04/23 02:28:59;;;;;;;10.60;6.68;;;;;;;;;;5115352;28;20024;-68
2021/04/23 02:31:27;;;;;;;16.00;7.18;;;;;;;;;;5117368;28;20024;-66
2021/04/23 02:33:55;;;;;;;14.82;7.57;;;;;;;;;;5113586;28;20076;-65
2021/04/23 02:36:21;;;;;;;16.13;8.23;;;;;;;;;;5116612;28;20383;-68
2021/04/23 02:38:48;;;;;;;15.32;8.23;;;;;;;;;;5103979;28;20028;-66
2021/04/23 02:41:15;;;;;;;21.42;7.32;;;;;;;;;;5097524;28;20486;-66
2021/04/23 02:43:45;;;;;;;17.42;6.85;;;;;;;;;;5104702;28;20051;-69
2021/04/23 02:46:11;;;;;;;15.70;7.25;;;;;;;;;;5109683;28;20020;-68
2021/04/23 02:48:38;;;;;;;12.93;7.78;;;;;;;;;;5110451;28;20432;-70
2021/04/23 02:51:07;;;;;;;11.93;7.07;;;;;;;;;;5092514;28;20024;-65
2021/04/23 02:53:33;;;;;;;19.58;8.20;;;;;;;;;;5086305;28;20070;-67
2021/04/23 02:56:00;;;;;;;15.75;7.22;;;;;;;;;;5097536;28;20020;-70
2021/04/23 02:58:26;;;;;;;15.02;6.55;;;;;;;;;;5106352;28;20276;-66
2021/04/23 03:00:55;;;;;;;11.57;6.22;;;;;;;;;;5104888;28;20058;-68
2021/04/23 03:03:23;;;;;;;15.05;7.88;;;;;;;;;;5116972;28;20028;-68
2021/04/23 03:05:53;;;;;;;14.38;7.57;;;;;;;;;;5112064;28;20066;-68
2021/04/23 03:08:19;;;;;;;13.43;7.05;;;;;;;;;;5116667;28;20050;-66
2021/04/23 03:10:47;;;;;;;11.57;7.40;;;;;;;;;;5116908;28;20381;-68
2021/04/23 03:13:18;;;;;;;16.45;7.15;;;;;;;;;;5116584;28;20024;-69
2021/04/23 03:15:44;;;;;;;13.48;6.40;;;;;;;;;;5114744;28;20358;-67
2021/04/23 03:18:15;;;;;;;16.85;7.88;;;;;;;;;;5104641;28;20068;-67
2021/04/23 03:20:41;;;;;;;12.98;6.32;;;;;;;;;;5116094;28;20033;-70
2021/04/23 03:23:08;;;;;;;16.35;6.47;;;;;;;;;;5091393;28;20474;-68
2021/04/23 03:25:34;;;;;;;15.55;7.00;;;;;;;;;;5105575;28;20042;-67
2021/04/23 03:28:01;;;;;;;14.85;7.40;;;;;;;;;;5115944;28;20034;-67
2021/04/23 03:30:29;;;;;;;11.77;6.05;;;;;;;;;;5107319;28;20054;-66
2021/04/23 03:32:56;;;;;;;15.90;8.25;;;;;;;;;;5095393;28;20017;-67
2021/04/23 03:35:22;;;;;;;16.10;6.65;;;;;;;;;;5103490;28;20056;-67
2021/04/23 03:37:48;;;;;;;14.52;8.15;;;;;;;;;;5116745;28;20028;-69
2021/04/23 03:40:16;;;;;;;15.75;7.40;;;;;;;;;;5108772;28;20032;-66
2021/04/23 03:42:42;;;;;;;14.27;7.85;;;;;;;;;;5095623;28;20023;-68
2021/04/23 03:45:10;;;;;;;21.00;8.27;;;;;;;;;;5097633;28;20055;-69
2021/04/23 03:47:36;;;;;;;15.00;7.28;;;;;;;;;;5116078;28;20023;-66
2021/04/23 03:50:03;;;;;;;13.98;7.25;;;;;;;;;;5110740;28;20103;-69
2021/04/23 03:52:29;;;;;;;12.18;6.32;;;;;;;;;;5095362;28;20028;-68
2021/04/23 03:54:55;;;;;;;16.35;7.00;;;;;;;;;;5104926;28;20035;-67
2021/04/23 03:57:21;;;;;;;12.57;7.18;;;;;;;;;;5095307;28;20020;-69
2021/04/23 03:59:47;;;;;;;14.43;7.32;;;;;;;;;;5091893;28;20023;-66
2021/04/23 04:02:13;;;;;;;17.13;7.38;;;;;;;;;;5115729;28;20047;-68
2021/04/23 04:04:40;;;;;;;13.75;7.00;;;;;;;;;;5099127;28;20028;-67
2021/04/23 04:07:06;;;;;;;14.32;6.63;;;;;;;;;;5094712;28;20012;-66
2021/04/23 04:09:32;;;;;;;13.70;7.70;;;;;;;;;;5095801;28;20045;-68
2021/04/23 04:11:58;;;;;;;16.55;8.73;;;;;;;;;;5094799;28;20028;-66
2021/04/23 04:14:24;;;;;;;18.02;7.38;;;;;;;;;;5109084;28;20024;-68
2021/04/23 04:16:51;;;;;;;16.13;7.10;;;;;;;;;;5116009;28;20027;-66
2021/04/23 04:19:17;;;;;;;14.38;7.55;;;;;;;;;;5104093;28;20042;-68
2021/04/23 04:21:43;;;;;;;12.13;7.18;;;;;;;;;;5095159;28;20028;-68
2021/04/23 04:24:09;;;;;;;15.55;7.30;;;;;;;;;;5105849;28;20087;-66
2021/04/23 04:26:35;;;;;;;15.45;7.30;;;;;;;;;;5100646;28;20028;-68
2021/04/23 04:29:01;;;;;;;12.98;6.95;;;;;;;;;;5104208;28;20028;-67
2021/04/23 04:31:27;;;;;;;19.17;7.57;;;;;;;;;;5116552;28;20028;-69
2021/04/23 04:33:53;;;;;;;19.63;8.32;;;;;;;;;;5110321;28;20073;-68
2021/04/23 04:36:20;;;;;;;10.93;6.30;;;;;;;;;;5100524;28;20016;-68
2021/04/23 04:38:46;;;;;;;19.42;8.25;;;;;;;;;;5100876;28;20016;-68
2021/04/23 04:41:12;;;;;;;15.18;7.47;;;;;;;;;;5099197;28;20047;-68
2021/04/23 04:43:39;;;;;;;18.30;8.30;;;;;;;;;;5101042;28;20111;-68
2021/04/23 04:46:05;;;;;;;15.07;9.02;;;;;;;;;;5119136;28;20549;-67
2021/04/23 04:48:31;;;;;;;16.70;8.23;;;;;;;;;;5115142;28;20111;-67
2021/04/23 04:50:58;;;;;;;14.63;7.45;;;;;;;;;;5099502;28;20065;-68
2021/04/23 04:53:25;;;;;;;19.52;7.60;;;;;;;;;;5099905;28;20020;-67
2021/04/23 04:55:52;;;;;;;17.75;8.30;;;;;;;;;;5102099;28;20023;-67
2021/04/23 04:58:19;;;;;;;18.83;8.00;;;;;;;;;;5117076;28;20022;-69
2021/04/23 05:00:46;;;;;;;19.20;6.40;;;;;;;;;;5118429;28;20500;-68
2021/04/23 05:03:13;;;;;;;22.02;8.20;;;;;;;;;;5118408;28;20031;-66
2021/04/23 05:05:41;;;;;;;19.60;7.72;;;;;;;;;;5118630;28;20474;-68
2021/04/23 05:08:07;;;;;;;10.70;7.18;;;;;;;;;;5106542;28;20058;-66
2021/04/23 05:10:33;;;;;;;18.27;7.90;;;;;;;;;;5099696;28;20077;-68
2021/04/23 05:12:59;;;;;;;13.02;7.65;;;;;;;;;;5100123;28;20107;-68
2021/04/23 05:15:26;;;;;;;14.52;7.40;;;;;;;;;;5105937;28;20064;-68
2021/04/23 05:17:52;;;;;;;17.98;6.78;;;;;;;;;;5096146;28;20017;-65
2021/04/23 05:20:19;;;;;;;16.63;6.80;;;;;;;;;;5114330;28;20035;-68
2021/04/23 05:22:45;;;;;;;14.98;7.75;;;;;;;;;;5103061;28;20028;-68
2021/04/23 05:25:12;;;;;;;17.90;8.00;;;;;;;;;;5095657;28;20030;-68
2021/04/23 05:27:39;;;;;;;15.50;7.97;;;;;;;;;;5090674;28;20039;-67
2021/04/23 05:30:06;;;;;;;16.73;7.47;;;;;;;;;;5102513;28;20055;-68
2021/04/23 05:32:32;;;;;;;17.73;7.20;;;;;;;;;;5108345;28;20081;-66
2021/04/23 05:34:58;;;;;;;23.77;9.25;;;;;;;;;;5115005;28;20015;-68
2021/04/23 05:37:24;;;;;;;14.80;7.40;;;;;;;;;;5100865;28;20424;-66
2021/04/23 05:39:50;;;;;;;16.65;7.32;;;;;;;;;;5112356;28;20016;-67
2021/04/23 05:42:17;;;;;;;20.55;7.93;;;;;;;;;;5098053;28;20016;-66
2021/04/23 05:44:44;;;;;;;14.57;7.40;;;;;;;;;;5101069;28;20051;-69
2021/04/23 05:47:10;;;;;;;11.85;7.15;;;;;;;;;;5097075;28;20032;-67
2021/04/23 05:49:37;;;;;;;24.05;8.27;;;;;;;;;;5103492;28;20470;-67
2021/04/23 05:52:05;;;;;;;20.50;7.25;;;;;;;;;;5099847;28;20060;-65
2021/04/23 05:54:31;;;;;;;16.27;7.47;;;;;;;;;;5111022;28;20024;-65
2021/04/23 05:56:57;;;;;;;18.25;7.55;;;;;;;;;;5097866;28;20051;-69
2021/04/23 05:59:23;;;;;;;19.13;7.00;;;;;;;;;;5101530;28;20019;-65
2021/04/23 06:01:50;;;;;;;14.52;8.18;;;;;;;;;;5099855;28;20055;-68
2021/04/23 06:04:16;;;;;;;14.30;7.28;;;;;;;;;;5102627;28;20028;-67
2021/04/23 06:06:42;;;;;;;14.93;7.15;;;;;;;;;;5097424;28;20099;-69
2021/04/23 06:09:08;;;;;;;17.40;7.38;;;;;;;;;;5108654;28;20101;-67
2021/04/23 06:11:34;;;;;;;12.57;6.80;;;;;;;;;;5115054;28;20042;-67
2021/04/23 06:14:00;;;;;;;14.50;7.45;;;;;;;;;;5096421;28;20113;-66
2021/04/23 06:16:26;;;;;;;16.05;7.00;;;;;;;;;;5095829;28;20031;-69
2021/04/23 06:18:53;;;;;;;20.30;7.93;;;;;;;;;;5099261;28;20064;-66
2021/04/23 06:21:19;;;;;;;17.40;8.77;;;;;;;;;;5095588;28;20020;-69
2021/04/23 06:23:45;;;;;;;18.33;8.32;;;;;;;;;;5116402;28;20032;-65
2021/04/23 06:26:12;;;;;;;21.05;9.75;;;;;;;;;;5117492;28;20028;-67
2021/04/23 06:28:38;;;;;;;16.45;9.40;;;;;;;;;;5100286;28;20040;-67
2021/04/23 06:31:05;;;;;;;15.30;6.97;;;;;;;;;;5117046;28;20440;-68
2021/04/23 06:33:38;;;;;;;18.48;14.13;;;;;;;;;;5100668;28;20467;-62
2021/04/23 06:36:04;;;;;;;22.23;11.85;;;;;;;;;;5097530;28;20051;-67
2021/04/23 06:38:31;;;;;;;25.60;9.25;;;;;;;;;;5078797;28;20442;-66
2021/04/23 06:40:57;;;;;;;20.92;9.02;;;;;;;;;;5097344;28;20145;-68
2021/04/23 06:43:23;;;;;;;18.27;8.57;;;;;;;;;;5099364;28;20036;-68
2021/04/23 06:45:50;;;;;;;34.78;17.98;;;;;;;;;;5100405;28;20077;-65
2021/04/23 06:48:17;;;;;;;19.83;10.38;;;;;;;;;;5094781;28;20024;-65
2021/04/23 06:50:43;;;;;;;12.15;8.57;;;;;;;;;;5111054;28;20081;-68
2021/04/23 06:53:10;;;;;;;14.93;7.35;;;;;;;;;;5103686;28;20470;-66
2021/04/23 06:55:36;;;;;;;14.45;7.80;;;;;;;;;;5094776;28;20510;-65
2021/04/23 06:58:05;;;;;;;18.08;8.45;;;;;;;;;;5103926;28;20024;-69
2021/04/23 07:00:32;;;;;;;30.33;18.63;;;;;;;;;;5114774;28;20020;-68
2021/04/23 07:02:59;;;;;;;15.82;6.57;;;;;;;;;;5107742;28;20390;-67
2021/04/23 07:05:25;;;;;;;12.13;5.05;;;;;;;;;;5096173;28;20129;-68
2021/04/23 07:07:52;;;;;;;12.00;5.53;;;;;;;;;;5105935;28;20070;-65
2021/04/23 07:10:23;;;;;;;10.82;6.07;;;;;;;;;;5098452;28;20535;-67
2021/04/23 07:12:49;;;;;;;23.33;5.47;;;;;;;;;;5096054;28;20020;-69
2021/04/23 07:15:18;;;;;;;10.50;5.25;;;;;;;;;;5099386;28;20034;-67
2021/04/23 07:17:45;;;;;;;13.60;5.50;;;;;;;;;;5096367;28;20019;-67
2021/04/23 07:20:11;;;;;;;12.23;5.80;;;;;;;;;;5092746;28;20055;-68
2021/04/23 07:22:37;;;;;;;8.30;4.75;;;;;;;;;;5089785;28;20028;-67
2021/04/23 07:25:04;;;;;;;9.02;5.38;;;;;;;;;;5088925;28;20036;-72
2021/04/23 07:27:34;;;;;;;10.15;4.63;;;;;;;;;;5086980;28;20024;-68
2021/04/23 07:30:01;;;;;;;8.00;4.70;;;;;;;;;;5103139;28;20098;-67
2021/04/23 07:32:27;;;;;;;10.55;4.82;;;;;;;;;;5099740;28;20020;-69
2021/04/23 07:34:53;;;;;;;11.02;4.10;;;;;;;;;;5093726;28;20029;-71
2021/04/23 07:37:19;;;;;;;10.13;4.50;;;;;;;;;;5098813;28;20020;-67
2021/04/23 07:39:46;;;;;;;18.52;4.65;;;;;;;;;;5101878;28;20058;-66
2021/04/23 07:42:12;;;;;;;9.63;4.22;;;;;;;;;;5093462;28;20024;-68
2021/04/23 07:44:38;;;;;;;13.82;5.40;;;;;;;;;;5097456;28;20038;-67
2021/04/23 07:47:04;;;;;;;7.63;3.95;;;;;;;;;;5098807;28;20780;-67
2021/04/23 07:49:30;;;;;;;10.00;4.25;;;;;;;;;;5097390;28;20038;-66
2021/04/23 07:51:56;;;;;;;9.18;4.32;;;;;;;;;;5102014;28;20505;-66
2021/04/23 07:54:22;;;;;;;7.78;4.50;;;;;;;;;;5105240;28;20057;-63
2021/04/23 07:56:48;;;;;;;12.30;4.03;;;;;;;;;;5096079;28;20032;-63
2021/04/23 07:59:14;;;;;;;7.78;4.05;;;;;;;;;;5103681;28;20031;-66
2021/04/23 08:01:40;;;;;;;12.70;4.07;;;;;;;;;;5093637;28;20090;-64
2021/04/23 08:04:06;;;;;;;11.20;4.28;;;;;;;;;;5102819;28;20362;-67
2021/04/23 08:06:32;;;;;;;13.05;4.25;;;;;;;;;;5105930;28;20055;-68
2021/04/23 08:09:00;;;;;;;10.20;4.05;;;;;;;;;;5090234;28;20046;-66
2021/04/23 08:11:26;;;;;;;8.95;4.47;;;;;;;;;;5103628;28;20038;-67
2021/04/23 08:13:52;;;;;;;9.32;4.57;;;;;;;;;;5107592;28;20428;-67
2021/04/23 08:16:18;;;;;;;12.27;4.90;;;;;;;;;;5088875;28;20032;-67
2021/04/23 08:18:45;;;;;;;8.57;4.43;;;;;;;;;;5079850;28;20031;-66
2021/04/23 08:21:11;;;;;;;9.25;3.92;;;;;;;;;;5097840;28;20547;-66
2021/04/23 08:23:38;;;;;;;8.20;4.28;;;;;;;;;;5108535;28;20027;-68
2021/04/23 08:26:04;;;;;;;8.02;3.80;;;;;;;;;;5098132;28;20043;-68
2021/04/23 08:28:31;;;;;;;7.55;3.67;;;;;;;;;;5103746;28;20102;-65
2021/04/23 08:30:57;;;;;;;8.20;3.60;;;;;;;;;;5107347;28;20041;-65
2021/04/23 08:33:24;;;;;;;6.03;3.30;;;;;;;;;;5108316;28;20028;-67
2021/04/23 08:35:51;;;;;;;4.72;2.85;;;;;;;;;;5106233;28;20020;-68
2021/04/23 08:38:17;;;;;;;6.22;2.75;;;;;;;;;;5100208;28;20052;-66
2021/04/23 08:40:43;;;;;;;10.55;3.05;;;;;;;;;;5105041;28;20027;-69
2021/04/23 08:43:09;;;;;;;9.90;2.95;;;;;;;;;;5103821;28;20031;-67
2021/04/23 08:45:35;;;;;;;7.60;2.70;;;;;;;;;;5106149;28;20539;-67
2021/04/23 08:48:02;;;;;;;6.55;2.97;;;;;;;;;;5095621;28;20032;-65
2021/04/23 08:50:28;;;;;;;5.90;2.80;;;;;;;;;;5107438;28;20031;-67
2021/04/23 08:52:54;;;;;;;8.25;2.83;;;;;;;;;;5100977;28;20051;-66
2021/04/23 08:55:22;;;;;;;7.07;2.78;;;;;;;;;;5107250;28;20028;-66
2021/04/23 08:57:49;;;;;;;5.32;2.80;;;;;;;;;;5098090;28;20024;-67
2021/04/23 09:00:16;;;;;;;8.40;3.90;;;;;;;;;;5097034;28;20055;-66
2021/04/23 09:02:44;;;;;;;6.90;2.70;;;;;;;;;;5104478;28;20020;-65
2021/04/23 09:05:11;;;;;;;7.22;3.28;;;;;;;;;;5096820;28;20055;-67
2021/04/23 09:07:37;;;;;;;5.50;2.63;;;;;;;;;;5101075;28;20028;-68
2021/04/23 09:10:21;;;;;;;8.80;3.20;;;;;;;;;;5093870;28;20048;-68
2021/04/23 09:13:03;;;;;;;8.02;2.85;;;;;;;;;;5105345;28;20482;-66
2021/04/23 09:15:29;;;;;;;4.20;2.80;;;;;;;;;;5099487;28;20044;-66
2021/04/23 09:18:12;;;;;;;6.88;3.08;;;;;;;;;;5104236;28;20019;-65
2021/04/23 09:20:39;;;;;;;5.88;2.72;;;;;;;;;;5096875;28;20031;-67
2021/04/23 09:23:06;;;;;;;6.65;2.78;;;;;;;;;;5107792;28;20034;-66
2021/04/23 09:25:39;;;;;;;6.70;2.90;;;;;;;;;;5109242;28;20085;-65
2021/04/23 09:28:05;;;;;;;6.00;3.00;;;;;;;;;;5097868;28;20028;-65
2021/04/23 09:30:31;;;;;;;6.88;3.33;;;;;;;;;;5103913;28;20031;-66
2021/04/23 09:32:57;;;;;;;6.88;3.22;;;;;;;;;;5103007;28;20031;-66
2021/04/23 09:35:23;;;;;;;6.22;2.97;;;;;;;;;;5108953;28;20037;-66
2021/04/23 09:37:54;;;;;;;8.20;3.17;;;;;;;;;;5096629;28;20024;-65
2021/04/23 09:40:25;;;;;;;6.95;3.08;;;;;;;;;;5105246;28;20546;-66
2021/04/23 09:42:52;;;;;;;5.13;2.85;;;;;;;;;;5104291;28;20414;-65
2021/04/23 09:45:19;;;;;;;6.18;3.17;;;;;;;;;;5096341;28;20031;-65
2021/04/23 09:47:46;;;;;;;9.23;3.22;;;;;;;;;;5097043;28;20038;-67
2021/04/23 09:50:14;;;;;;;5.05;3.08;;;;;;;;;;5098434;28;20058;-66
2021/04/23 09:52:47;;;;;;;8.30;3.53;;;;;;;;;;5108873;28;20059;-67
2021/04/23 09:55:14;;;;;;;6.10;3.00;;;;;;;;;;5101844;28;20131;-65
2021/04/23 09:57:47;;;;;;;12.23;3.97;;;;;;;;;;5103162;28;20023;-67
2021/04/23 10:00:13;;;;;;;5.45;3.20;;;;;;;;;;5087004;28;20038;-67
2021/04/23 10:02:39;;;;;;;10.88;3.40;;;;;;;;;;5103275;28;20040;-67
2021/04/23 10:05:06;;;;;;;7.40;3.05;;;;;;;;;;5099649;28;20020;-66
2021/04/23 10:07:34;;;;;;;9.43;3.00;;;;;;;;;;5096127;28;20028;-65
2021/04/23 10:10:05;;;;;;;5.97;3.20;;;;;;;;;;5063667;28;748263;-65
2021/04/23 10:12:36;;;;;;;6.35;2.92;;;;;;;;;;5099113;28;20032;-65
2021/04/23 10:15:05;;;;;;;6.70;3.25;;;;;;;;;;5104566;28;20030;-65
2021/04/23 10:17:31;;;;;;;16.95;3.65;;;;;;;;;;5102374;28;20498;-68
2021/04/23 10:19:58;;;;;;;7.47;3.30;;;;;;;;;;5101577;28;20034;-67
2021/04/23 10:22:25;;;;;;;8.65;3.00;;;;;;;;;;5106903;28;20041;-66
2021/04/23 10:24:51;;;;;;;8.70;3.78;;;;;;;;;;5095856;28;20028;-65
2021/04/23 10:27:18;;;;;;;7.22;3.85;;;;;;;;;;5100190;28;20043;-66
2021/04/23 10:29:46;;;;;;;5.95;3.10;;;;;;;;;;5098468;28;20028;-65
2021/04/23 10:32:12;;;;;;;5.63;2.97;;;;;;;;;;5105164;28;20030;-66
2021/04/23 10:34:39;;;;;;;8.35;3.35;;;;;;;;;;5105655;28;20540;-66
2021/04/23 10:37:05;;;;;;;6.22;2.95;;;;;;;;;;5088791;28;20139;-66
2021/04/23 10:39:35;;;;;;;4.85;2.90;;;;;;;;;;5098347;28;20028;-66
2021/04/23 10:42:02;;;;;;;7.53;3.33;;;;;;;;;;5106860;28;20034;-65
2021/04/23 10:44:47;;;;;;;12.82;3.88;;;;;;;;;;5106003;28;20028;-65
2021/04/23 10:47:28;;;;;;;6.50;3.42;;;;;;;;;;5104994;28;20068;-66
2021/04/23 10:50:07;;;;;;;7.18;2.83;;;;;;;;;;5090103;28;20446;-67
2021/04/23 10:52:33;;;;;;;4.82;2.63;;;;;;;;;;5105397;28;20028;-66
2021/04/23 10:55:17;;;;;;;7.63;2.67;;;;;;;;;;5105486;28;20031;-65
2021/04/23 10:57:56;;;;;;;4.53;2.78;;;;;;;;;;5093567;28;20024;-67
2021/04/23 11:00:31;;;;;;;7.22;3.50;;;;;;;;;;5104083;28;20031;-65
2021/04/23 11:03:17;;;;;;;9.63;3.58;;;;;;;;;;5100431;28;20033;-67
2021/04/23 11:05:44;;;;;;;6.30;2.97;;;;;;;;;;5106919;28;20486;-67
2021/04/23 11:08:11;;;;;;;7.28;2.95;;;;;;;;;;5102189;28;20059;-66
2021/04/23 11:10:55;;;;;;;9.43;3.13;;;;;;;;;;5103473;28;20039;-66
2021/04/23 11:13:25;;;;;;;5.30;2.95;;;;;;;;;;5100642;28;20510;-65
2021/04/23 11:16:09;;;;;;;5.55;3.05;;;;;;;;;;5104344;28;20027;-66
2021/04/23 11:18:35;;;;;;;7.93;3.22;;;;;;;;;;5096541;28;20394;-64
2021/04/23 11:21:21;;;;;;;8.70;3.63;;;;;;;;;;5097860;28;20028;-66
2021/04/23 11:24:06;;;;;;;8.07;3.00;;;;;;;;;;5098092;28;20501;-66
2021/04/23 11:26:51;;;;;;;6.55;3.42;;;;;;;;;;5099843;28;20047;-66
2021/04/23 11:29:17;;;;;;;9.07;3.10;;;;;;;;;;5099568;28;20398;-65
2021/04/23 11:32:01;;;;;;;7.15;3.50;;;;;;;;;;5101635;28;20055;-63
2021/04/23 11:34:36;;;;;;;9.57;4.15;;;;;;;;;;5103582;28;20080;-66
2021/04/23 11:37:03;;;;;;;7.68;3.40;;;;;;;;;;5103212;28;20030;-65
2021/04/23 11:39:34;;;;;;;14.98;3.88;;;;;;;;;;5091324;28;20032;-65
2021/04/23 11:42:09;;;;;;;8.75;3.80;;;;;;;;;;5098418;28;20057;-66
2021/04/23 11:44:35;;;;;;;;;;;;;;;;;;5101056;28;20381;-66
2021/04/23 11:47:01;;;;;;;8.82;3.25;;;;;;;;;;5106456;28;19911;-66
2021/04/23 11:49:27;;;;;;;6.40;4.10;;;;;;;;;;5102498;28;20800;-66
2021/04/23 11:51:54;;;;;;;8.10;3.22;;;;;;;;;;5096528;28;20131;-66
2021/04/23 11:54:52;;;;;;;9.88;3.50;;;;;;;;;;5089020;28;20060;-65
2021/04/23 11:57:18;;;;;;;7.93;3.30;;;;;;;;;;5054889;28;20040;-67
2021/04/23 12:00:01;;;;;;;7.88;3.63;;;;;;;;;;5097341;28;20032;-65
2021/04/23 12:02:43;;;;;;;8.10;3.33;;;;;;;;;;5094553;28;20028;-66
2021/04/23 12:05:20;;;;;;;8.52;4.32;;;;;;;;;;5100019;28;20102;-65
2021/04/23 12:07:46;;;;;;;7.80;3.72;;;;;;;;;;5103164;28;20152;-63
2021/04/23 12:10:13;;;;;;;6.80;3.42;;;;;;;;;;5087435;28;20035;-64
2021/04/23 12:12:41;;;;;;;7.63;3.72;;;;;;;;;;5107473;28;20051;-67
2021/04/23 12:15:08;;;;;;;6.40;3.97;;;;;;;;;;5106985;28;20028;-65
2021/04/23 12:17:40;;;;;;;8.65;4.25;;;;;;;;;;5108386;28;20039;-66
2021/04/23 12:20:14;;;;;;;11.35;3.95;;;;;;;;;;5105696;28;20028;-65
2021/04/23 12:22:40;;;;;;;7.72;4.00;;;;;;;;;;5107103;28;20024;-65
2021/04/23 12:25:31;;;;;;;6.50;3.92;;;;;;;;;;5100016;28;20454;-65
2021/04/23 12:28:17;;;;;;;7.72;4.15;;;;;;;;;;5088531;28;20439;-66
2021/04/23 12:30:43;;;;;;;10.13;4.28;;;;;;;;;;5100864;28;20482;-65
2021/04/23 12:33:09;;;;;;;12.93;4.80;;;;;;;;;;5088959;28;20024;-65
2021/04/23 12:35:39;;;;;;;7.38;4.10;;;;;;;;;;5100308;28;20035;-66
2021/04/23 12:38:07;;;;;;;6.60;4.55;;;;;;;;;;5099921;28;20093;-64
2021/04/23 12:40:34;;;;;;;7.70;4.18;;;;;;;;;;5100480;28;20063;-64
2021/04/23 12:43:11;;;;;;;9.75;5.60;;;;;;;;;;5105855;28;20440;-66
2021/04/23 12:45:41;;;;;;;6.05;4.10;;;;;;;;;;5097667;28;20394;-65
2021/04/23 12:48:07;;;;;;;10.23;4.45;;;;;;;;;;5102228;28;20580;-66
2021/04/23 12:50:33;;;;;;;13.13;4.88;;;;;;;;;;5103955;28;20028;-66
2021/04/23 12:52:59;;;;;;;8.80;4.50;;;;;;;;;;5106765;28;20118;-66
2021/04/23 12:55:25;;;;;;;7.57;4.30;;;;;;;;;;5109384;28;20032;-66
2021/04/23 12:57:51;;;;;;;7.47;5.10;;;;;;;;;;5111831;28;20023;-67
2021/04/23 13:00:18;;;;;;;6.53;3.72;;;;;;;;;;5105268;28;20035;-65
2021/04/23 13:02:46;;;;;;;6.38;4.13;;;;;;;;;;5108111;28;20393;-64
2021/04/23 13:05:12;;;;;;;7.20;4.82;;;;;;;;;;5110766;28;20375;-65
2021/04/23 13:07:41;;;;;;;10.20;4.53;;;;;;;;;;5108328;28;20019;-65
2021/04/23 13:10:09;;;;;;;9.07;4.70;;;;;;;;;;5092586;28;20481;-65
2021/04/23 13:15:06;;;;;;;7.80;3.60;;;;;;;;;;5106599;28;20126;-66
2021/04/23 13:17:39;;;;;;;6.05;3.63;;;;;;;;;;5110685;28;20536;-66
2021/04/23 13:20:16;;;;;;;7.97;4.25;;;;;;;;;;5108480;28;20453;-66
2021/04/23 13:22:46;;;;;;;6.43;4.53;;;;;;;;;;5107706;28;20031;-66
2021/04/23 13:25:14;;;;;;;8.68;4.38;;;;;;;;;;5108007;28;20031;-66
2021/04/23 13:27:46;;;;;;;9.48;4.25;;;;;;;;;;5111308;28;20036;-65
2021/04/23 13:30:31;;;;;;;11.90;4.32;;;;;;;;;;5110395;28;20444;-65
2021/04/23 13:32:59;;;;;;;10.70;3.60;;;;;;;;;;5099263;28;20363;-67
2021/04/23 13:35:41;;;;;;;8.38;4.50;;;;;;;;;;5107974;28;20019;-65
2021/04/23 13:38:35;;;;;;;10.43;5.18;;;;;;;;;;5082058;28;20077;-65
2021/04/23 13:41:10;;;;;;;6.80;3.83;;;;;;;;;;5096173;28;20497;-66
2021/04/23 13:43:37;;;;;;;6.60;3.90;;;;;;;;;;5105809;28;20028;-65
2021/04/23 13:46:05;;;;;;;9.90;4.22;;;;;;;;;;5108266;28;20096;-65
2021/04/23 13:48:32;;;;;;;9.73;4.80;;;;;;;;;;5105709;28;20509;-65
2021/04/23 13:51:03;;;;;;;9.05;4.60;;;;;;;;;;5110489;28;20042;-66
2021/04/23 13:53:30;;;;;;;6.90;4.40;;;;;;;;;;5109058;28;20023;-66
2021/04/23 13:56:04;;;;;;;10.95;4.38;;;;;;;;;;5109811;28;20098;-66
2021/04/23 13:58:30;;;;;;;8.82;4.72;;;;;;;;;;5107885;28;20027;-65
2021/04/23 14:00:58;;;;;;;7.47;4.47;;;;;;;;;;5094550;28;20455;-64
2021/04/23 14:03:24;;;;;;;10.18;4.57;;;;;;;;;;5101858;28;20761;-66
2021/04/23 14:05:51;;;;;;;8.82;4.25;;;;;;;;;;5100579;28;20136;-65
2021/04/23 14:08:17;;;;;;;7.63;4.75;;;;;;;;;;5106177;28;20054;-64
2021/04/23 14:10:44;;;;;;;9.82;5.22;;;;;;;;;;5093537;28;20136;-64
2021/04/23 14:13:10;;;;;;;8.07;4.90;;;;;;;;;;5100294;28;20028;-67
2021/04/23 14:15:37;;;;;;;9.70;4.75;;;;;;;;;;5099981;28;20039;-66
2021/04/23 14:18:03;;;;;;;8.85;4.88;;;;;;;;;;5100113;28;20030;-65
2021/04/23 14:20:29;;;;;;;8.13;4.75;;;;;;;;;;5100299;28;20036;-65
2021/04/23 14:22:57;;;;;;;7.10;5.07;;;;;;;;;;5104880;28;20028;-66
2021/04/23 14:25:23;;;;;;;10.02;5.80;;;;;;;;;;5101503;28;20144;-66
2021/04/23 14:27:49;;;;;;;7.07;5.38;;;;;;;;;;5096350;28;20447;-65
2021/04/23 14:30:15;;;;;;;7.32;5.18;;;;;;;;;;5098859;28;20035;-65
2021/04/23 14:32:42;;;;;;;9.68;5.40;;;;;;;;;;5105688;28;20032;-64
2021/04/23 14:35:08;;;;;;;11.27;5.40;;;;;;;;;;5104141;28;20111;-65
2021/04/23 14:37:35;;;;;;;8.73;5.28;;;;;;;;;;5098987;28;20032;-65
2021/04/23 14:40:01;;;;;;;9.80;4.90;;;;;;;;;;5106063;28;20023;-65
2021/04/23 14:42:27;;;;;;;8.93;5.13;;;;;;;;;;5104530;28;20031;-64
2021/04/23 14:44:53;;;;;;;7.85;4.70;;;;;;;;;;5100593;28;20438;-65